createdAt,value
2023-01-01T00:01:29.542Z,9.60
2023-01-01T00:04:08.735Z,8.02
2023-01-01T00:06:41.270Z,9.35
2023-01-01T00:09:35.356Z,9.60
2023-01-01T00:12:04.926Z,7.18
2023-01-01T00:14:34.308Z,9.60
2023-01-01T00:17:07.015Z,8.02
2023-01-01T00:19:36.422Z,8.15
2023-01-01T00:22:35.266Z,7.22
2023-01-01T00:24:55.067Z,6.38
2023-01-01T00:27:24.136Z,5.45
2023-01-01T00:29:53.229Z,5.15
2023-01-01T00:32:23.972Z,6.05
2023-01-01T00:34:53.560Z,4.75
2023-01-01T00:37:22.849Z,4.50
2023-01-01T00:39:51.932Z,4.00
2023-01-01T00:42:21.306Z,4.05
2023-01-01T00:44:50.385Z,4.38
2023-01-01T00:47:19.489Z,4.82
2023-01-01T00:49:49.911Z,4.50
2023-01-01T00:52:20.846Z,5.35
2023-01-01T00:54:50.116Z,5.53
2023-01-01T00:57:19.193Z,6.15
2023-01-01T00:59:49.210Z,6.22
2023-01-01T01:02:18.580Z,7.75
2023-01-01T01:04:49.432Z,6.18
2023-01-01T01:07:18.537Z,4.97
2023-01-01T01:09:47.755Z,3.95
2023-01-01T01:12:18.868Z,5.00
2023-01-01T01:14:48.329Z,7.03
2023-01-01T01:17:17.484Z,6.97
2023-01-01T01:19:46.544Z,5.90
2023-01-01T01:22:17.026Z,5.80
2023-01-01T01:24:46.088Z,4.93
2023-01-01T01:27:15.376Z,3.53
2023-01-01T01:29:44.487Z,3.95
2023-01-01T01:32:15.117Z,4.57
2023-01-01T01:34:44.196Z,4.55
2023-01-01T01:37:13.834Z,4.50
2023-01-01T01:39:47.832Z,3.67
2023-01-01T01:42:19.797Z,3.30
2023-01-01T01:44:58.591Z,4.30
2023-01-01T01:47:35.442Z,3.20
2023-01-01T01:50:11.408Z,3.25
2023-01-01T01:52:53.828Z,3.50
2023-01-01T01:55:24.479Z,3.92
2023-01-01T01:57:54.071Z,3.95
2023-01-01T02:00:23.908Z,3.40
2023-01-01T02:02:57.820Z,3.75
2023-01-01T02:05:27.690Z,3.17
2023-01-01T02:07:58.670Z,4.20
2023-01-01T02:10:29.745Z,3.03
2023-01-01T02:12:59.103Z,3.28
2023-01-01T02:15:35.716Z,3.40
2023-01-01T02:18:11.517Z,3.53
2023-01-01T02:20:48.659Z,3.58
2023-01-01T02:23:44.628Z,4.28
2023-01-01T02:26:42.498Z,3.90
2023-01-01T02:29:26.374Z,3.65
2023-01-01T02:32:02.636Z,3.28
2023-01-01T02:34:37.177Z,3.88
2023-01-01T02:37:10.396Z,3.58
2023-01-01T02:39:45.401Z,3.60
2023-01-01T02:42:15.026Z,3.55
2023-01-01T02:44:49.748Z,3.63
2023-01-01T02:47:21.135Z,2.72
2023-01-01T02:49:57.448Z,3.20
2023-01-01T02:52:50.040Z,3.22
2023-01-01T02:55:30.676Z,3.92
2023-01-01T02:58:21.981Z,4.32
2023-01-01T03:00:57.742Z,3.40
2023-01-01T03:03:31.935Z,3.85
2023-01-01T03:06:27.036Z,3.35
2023-01-01T03:09:04.276Z,3.38
2023-01-01T03:11:39.577Z,4.70
2023-01-01T03:14:15.066Z,4.07
2023-01-01T03:16:52.612Z,4.18
2023-01-01T03:19:25.624Z,3.63
2023-01-01T03:22:00.664Z,5.00
2023-01-01T03:24:35.148Z,4.32
2023-01-01T03:27:10.561Z,4.78
2023-01-01T03:29:42.554Z,3.67
2023-01-01T03:32:17.354Z,4.53
2023-01-01T03:34:52.837Z,4.28
2023-01-01T03:37:26.925Z,3.73
2023-01-01T03:39:59.988Z,3.45
2023-01-01T03:42:35.833Z,5.35
2023-01-01T03:45:09.398Z,4.53
2023-01-01T03:47:39.992Z,4.75
2023-01-01T03:50:10.264Z,4.93
2023-01-01T03:52:49.733Z,4.32
2023-01-01T03:55:23.916Z,4.22
2023-01-01T03:58:02.084Z,5.25
2023-01-01T04:00:36.114Z,6.25
2023-01-01T04:03:10.640Z,5.63
2023-01-01T04:05:42.391Z,6.03
2023-01-01T04:08:13.531Z,6.00
2023-01-01T04:10:47.357Z,5.53
2023-01-01T04:13:16.430Z,4.63
2023-01-01T04:15:45.543Z,4.70
2023-01-01T04:18:16.689Z,4.55
2023-01-01T04:20:45.854Z,4.90
2023-01-01T04:23:14.907Z,4.50
2023-01-01T04:25:43.926Z,5.38
2023-01-01T04:28:13.000Z,5.10
2023-01-01T04:33:10.449Z,4.72
2023-01-01T04:35:40.973Z,3.75
2023-01-01T04:38:14.597Z,3.72
2023-01-01T04:40:43.746Z,3.97
2023-01-01T04:43:12.826Z,3.80
2023-01-01T04:45:41.858Z,4.15
2023-01-01T04:48:10.964Z,4.40
2023-01-01T04:50:41.332Z,4.40
2023-01-01T04:53:10.346Z,3.58
2023-01-01T04:55:39.376Z,3.80
2023-01-01T04:58:08.428Z,3.45
2023-01-01T05:00:37.465Z,3.63
2023-01-01T05:03:06.673Z,3.95
2023-01-01T05:05:35.730Z,3.38
2023-01-01T05:08:06.197Z,3.67
2023-01-01T05:10:35.232Z,3.78
2023-01-01T05:13:08.825Z,3.75
2023-01-01T05:15:38.483Z,3.33
2023-01-01T05:18:07.567Z,3.75
2023-01-01T05:20:37.017Z,3.17
2023-01-01T05:23:07.405Z,3.65
2023-01-01T05:25:36.419Z,3.30
2023-01-01T05:28:05.668Z,2.30
2023-01-01T05:30:34.757Z,3.28
2023-01-01T05:33:03.801Z,2.55
2023-01-01T05:35:32.924Z,2.10
2023-01-01T05:38:03.445Z,2.88
2023-01-01T05:40:33.787Z,2.63
2023-01-01T05:43:02.860Z,2.42
2023-01-01T05:45:31.984Z,2.60
2023-01-01T05:48:01.094Z,2.08
2023-01-01T05:50:30.167Z,2.42
2023-01-01T05:52:59.230Z,2.13
2023-01-01T05:55:28.739Z,2.00
2023-01-01T05:57:59.272Z,2.25
2023-01-01T06:00:29.142Z,2.08
2023-01-01T06:02:58.285Z,2.55
2023-01-01T06:05:27.398Z,1.73
2023-01-01T06:07:56.401Z,2.33
2023-01-01T06:10:25.460Z,2.50
2023-01-01T06:12:58.983Z,1.70
2023-01-01T06:15:28.672Z,2.00
2023-01-01T06:17:58.648Z,2.72
2023-01-01T06:20:27.693Z,2.73
2023-01-01T06:22:56.740Z,2.47
2023-01-01T06:25:25.796Z,2.30
2023-01-01T06:27:54.835Z,1.73
2023-01-01T06:30:25.260Z,2.08
2023-01-01T06:32:55.427Z,1.90
2023-01-01T06:35:24.465Z,2.30
2023-01-01T06:37:53.529Z,1.90
2023-01-01T06:40:22.581Z,2.00
2023-01-01T06:42:51.641Z,2.03
2023-01-01T06:45:20.666Z,2.13
2023-01-01T06:47:51.028Z,2.58
2023-01-01T06:50:20.201Z,1.83
2023-01-01T06:52:49.373Z,2.05
2023-01-01T06:55:18.459Z,1.50
2023-01-01T06:57:47.492Z,2.08
2023-01-01T07:00:17.594Z,2.03
2023-01-01T07:02:50.177Z,1.60
2023-01-01T07:05:19.370Z,1.60
2023-01-01T07:07:48.432Z,1.50
2023-01-01T07:10:17.587Z,1.70
2023-01-01T07:12:46.585Z,1.45
2023-01-01T07:15:15.696Z,2.03
2023-01-01T07:17:44.735Z,1.35
2023-01-01T07:20:15.444Z,1.83
2023-01-01T07:22:44.535Z,1.63
2023-01-01T07:25:17.015Z,1.30
2023-01-01T07:27:46.666Z,1.90
2023-01-01T07:30:16.044Z,1.48
2023-01-01T07:32:45.075Z,1.48
2023-01-01T07:35:15.547Z,1.70
2023-01-01T07:37:44.554Z,1.70
2023-01-01T07:40:14.132Z,2.10
2023-01-01T07:42:43.212Z,1.90
2023-01-01T07:45:14.535Z,1.20
2023-01-01T07:47:43.620Z,1.25
2023-01-01T07:50:18.837Z,1.42
2023-01-01T07:52:47.931Z,1.60
2023-01-01T07:55:19.257Z,1.52
2023-01-01T07:57:49.301Z,1.27
2023-01-01T08:00:20.201Z,1.25
2023-01-01T08:02:49.966Z,1.67
2023-01-01T08:05:26.312Z,1.73
2023-01-01T08:07:56.413Z,1.63
2023-01-01T08:10:25.500Z,1.17
2023-01-01T08:13:00.137Z,1.20
2023-01-01T08:15:29.191Z,2.05
2023-01-01T08:17:58.971Z,1.45
2023-01-01T08:20:30.542Z,1.58
2023-01-01T08:23:04.781Z,1.00
2023-01-01T08:25:36.361Z,0.63
2023-01-01T08:28:05.864Z,0.83
2023-01-01T08:30:35.437Z,0.77
2023-01-01T08:33:04.524Z,0.73
2023-01-01T08:35:36.958Z,0.85
2023-01-01T08:38:05.993Z,0.60
2023-01-01T08:40:36.565Z,0.75
2023-01-01T08:43:05.733Z,0.73
2023-01-01T08:45:34.788Z,0.60
2023-01-01T08:48:03.875Z,0.70
2023-01-01T08:50:34.332Z,1.63
2023-01-01T08:53:03.416Z,1.05
2023-01-01T08:55:32.533Z,0.82
2023-01-01T08:58:01.512Z,0.73
2023-01-01T09:00:30.582Z,1.00
2023-01-01T09:02:59.689Z,0.50
2023-01-01T09:05:28.829Z,0.70
2023-01-01T09:07:59.281Z,1.35
2023-01-01T09:10:28.385Z,0.50
2023-01-01T09:12:57.443Z,1.42
2023-01-01T09:15:26.623Z,0.73
2023-01-01T09:17:55.648Z,0.60
2023-01-01T09:20:24.725Z,0.80
2023-01-01T09:22:53.771Z,0.90
2023-01-01T09:25:24.299Z,0.68
2023-01-01T09:27:59.385Z,0.68
2023-01-01T09:30:28.600Z,0.70
2023-01-01T09:32:57.652Z,0.65
2023-01-01T09:35:26.691Z,1.05
2023-01-01T09:37:55.786Z,0.70
2023-01-01T09:40:33.909Z,0.63
2023-01-01T09:43:15.992Z,0.63
2023-01-01T09:45:59.974Z,0.75
2023-01-01T09:48:30.892Z,1.10
2023-01-01T09:51:03.332Z,0.80
2023-01-01T09:53:35.941Z,0.43
2023-01-01T09:56:12.190Z,0.90
2023-01-01T09:58:41.242Z,0.65
2023-01-01T10:01:18.359Z,0.55
2023-01-01T10:03:52.428Z,0.90
2023-01-01T10:06:26.812Z,0.50
2023-01-01T10:09:09.358Z,0.57
2023-01-01T10:11:51.954Z,0.90
2023-01-01T10:14:26.433Z,1.13
2023-01-01T10:16:58.754Z,0.38
2023-01-01T10:19:36.590Z,0.82
2023-01-01T10:22:10.085Z,1.00
2023-01-01T10:24:46.804Z,0.60
2023-01-01T10:27:29.054Z,0.70
2023-01-01T10:30:04.260Z,0.70
2023-01-01T10:32:36.899Z,0.70
2023-01-01T10:35:15.010Z,0.40
2023-01-01T10:37:44.838Z,0.85
2023-01-01T10:40:20.256Z,0.43
2023-01-01T10:42:52.702Z,0.60
2023-01-01T10:45:31.426Z,0.60
2023-01-01T10:48:19.276Z,0.68
2023-01-01T10:50:52.530Z,0.47
2023-01-01T10:53:28.196Z,0.75
2023-01-01T10:56:16.237Z,0.60
2023-01-01T10:58:48.980Z,0.60
2023-01-01T11:01:23.762Z,0.65
2023-01-01T11:03:58.980Z,0.60
2023-01-01T11:06:32.582Z,0.82
2023-01-01T11:09:07.020Z,0.70
2023-01-01T11:11:44.011Z,0.60
2023-01-01T11:14:26.555Z,0.70
2023-01-01T11:16:56.766Z,0.40
2023-01-01T11:19:29.700Z,0.70
2023-01-01T11:21:58.854Z,0.82
2023-01-01T11:24:29.527Z,0.85
2023-01-01T11:27:18.956Z,1.03
2023-01-01T11:29:51.340Z,0.52
2023-01-01T11:32:23.378Z,0.63
2023-01-01T11:34:59.328Z,0.85
2023-01-01T11:37:33.067Z,0.70
2023-01-01T11:40:03.797Z,0.50
2023-01-01T11:42:36.541Z,0.82
2023-01-01T11:45:17.891Z,0.60
2023-01-01T11:47:52.175Z,1.10
2023-01-01T11:50:29.672Z,0.60
2023-01-01T11:53:18.010Z,0.90
2023-01-01T11:55:50.484Z,0.60
2023-01-01T11:58:25.974Z,0.75
2023-01-01T12:00:58.842Z,0.50
2023-01-01T12:03:33.838Z,0.65
2023-01-01T12:06:08.797Z,0.52
2023-01-01T12:08:41.203Z,1.10
2023-01-01T12:11:20.286Z,0.93
2023-01-01T12:13:55.464Z,1.10
2023-01-01T12:16:35.690Z,0.73
2023-01-01T12:19:14.017Z,0.55
2023-01-01T12:21:52.415Z,0.60
2023-01-01T12:24:22.301Z,1.00
2023-01-01T12:27:10.486Z,0.70
2023-01-01T12:30:05.418Z,0.90
2023-01-01T12:33:05.661Z,0.80
2023-01-01T12:35:52.604Z,1.13
2023-01-01T12:38:38.376Z,0.77
2023-01-01T12:41:13.689Z,0.93
2023-01-01T12:43:52.832Z,0.60
2023-01-01T12:46:40.073Z,0.90
2023-01-01T12:49:37.999Z,0.90
2023-01-01T12:52:22.277Z,0.55
2023-01-01T12:55:24.857Z,0.52
2023-01-01T12:58:00.246Z,0.68
2023-01-01T13:00:31.578Z,0.60
2023-01-01T13:03:06.125Z,0.60
2023-01-01T13:05:41.277Z,0.80
2023-01-01T13:08:10.434Z,0.40
2023-01-01T13:10:41.467Z,0.82
2023-01-01T13:13:12.826Z,0.88
2023-01-01T13:15:54.656Z,0.68
2023-01-01T13:18:33.765Z,0.52
2023-01-01T13:21:07.292Z,0.68
2023-01-01T13:23:53.589Z,0.77
2023-01-01T13:26:42.343Z,0.80
2023-01-01T13:29:34.046Z,0.80
2023-01-01T13:32:08.381Z,1.20
2023-01-01T13:35:00.650Z,0.80
2023-01-01T13:37:52.849Z,0.80
2023-01-01T13:40:50.664Z,1.00
2023-01-01T13:43:28.067Z,0.85
2023-01-01T13:46:14.797Z,0.70
2023-01-01T13:49:14.761Z,1.10
2023-01-01T13:52:08.889Z,0.70
2023-01-01T13:55:12.486Z,0.95
2023-01-01T13:58:26.219Z,0.93
2023-01-01T14:01:16.604Z,1.30
2023-01-01T14:03:50.038Z,0.77
2023-01-01T14:06:29.963Z,1.15
2023-01-01T14:09:08.302Z,1.07
2023-01-01T14:11:38.692Z,0.65
2023-01-01T14:14:24.311Z,0.98
2023-01-01T14:16:55.175Z,0.87
2023-01-01T14:19:25.280Z,0.57
2023-01-01T14:21:55.514Z,1.03
2023-01-01T14:24:27.073Z,1.40
2023-01-01T14:26:57.628Z,1.10
2023-01-01T14:29:30.255Z,0.67
2023-01-01T14:32:00.967Z,0.60
2023-01-01T14:34:32.763Z,0.70
2023-01-01T14:37:03.584Z,1.10
2023-01-01T14:39:34.574Z,1.33
2023-01-01T14:42:09.889Z,1.23
2023-01-01T14:44:42.877Z,0.80
2023-01-01T14:47:24.638Z,1.00
2023-01-01T14:49:54.803Z,0.93
2023-01-01T14:52:27.544Z,0.87
2023-01-01T14:55:00.208Z,0.87
2023-01-01T14:57:33.025Z,1.40
2023-01-01T15:00:04.131Z,1.07
2023-01-01T15:02:38.163Z,1.00
2023-01-01T15:05:34.775Z,1.80
2023-01-01T15:08:06.961Z,1.63
2023-01-01T15:10:38.344Z,1.20
2023-01-01T15:13:09.281Z,1.07
2023-01-01T15:15:43.706Z,0.93
2023-01-01T15:18:37.673Z,1.00
2023-01-01T15:21:11.146Z,1.47
2023-01-01T15:23:41.132Z,1.33
2023-01-01T15:26:30.245Z,1.30
2023-01-01T15:29:02.276Z,1.90
2023-01-01T15:31:43.347Z,1.50
2023-01-01T15:34:27.709Z,1.10
2023-01-01T15:37:06.088Z,1.30
2023-01-01T15:39:45.294Z,1.20
2023-01-01T15:42:34.199Z,1.83
2023-01-01T15:45:28.838Z,1.60
2023-01-01T15:47:59.796Z,1.10
2023-01-01T15:50:33.710Z,1.40
2023-01-01T15:53:09.504Z,1.10
2023-01-01T15:55:45.689Z,0.90
2023-01-01T15:58:20.358Z,1.23
2023-01-01T16:00:58.363Z,1.27
2023-01-01T16:03:30.417Z,0.93
2023-01-01T16:06:00.390Z,1.10
2023-01-01T16:08:29.441Z,1.57
2023-01-01T16:10:59.510Z,1.10
2023-01-01T16:13:28.574Z,1.50
2023-01-01T16:16:00.756Z,2.77
2023-01-01T16:18:32.059Z,1.20
2023-01-01T16:21:02.018Z,1.57
2023-01-01T16:23:31.404Z,1.33
2023-01-01T16:26:00.521Z,1.40
2023-01-01T16:28:29.863Z,2.37
2023-01-01T16:31:00.610Z,1.20
2023-01-01T16:33:29.742Z,1.30
2023-01-01T16:35:58.933Z,1.60
2023-01-01T16:38:28.051Z,1.13
2023-01-01T16:40:57.144Z,1.60
2023-01-01T16:43:26.283Z,1.77
2023-01-01T16:45:56.264Z,1.57
2023-01-01T16:48:26.751Z,1.47
2023-01-01T16:50:56.022Z,1.80
2023-01-01T16:53:25.185Z,1.67
2023-01-01T16:55:54.802Z,1.57
2023-01-01T17:01:14.917Z,1.80
2023-01-01T17:03:45.363Z,2.10
2023-01-01T17:06:16.219Z,1.13
2023-01-01T17:08:45.337Z,1.70
2023-01-01T17:11:16.586Z,1.57
2023-01-01T17:13:47.182Z,1.63
2023-01-01T17:16:26.107Z,2.07
2023-01-01T17:19:15.459Z,1.60
2023-01-01T17:21:45.078Z,1.40
2023-01-01T17:24:14.178Z,1.30
2023-01-01T17:26:43.254Z,2.10
2023-01-01T17:29:12.742Z,1.60
2023-01-01T17:31:43.565Z,1.40
2023-01-01T17:34:14.696Z,1.57
2023-01-01T17:36:45.776Z,2.07
2023-01-01T17:39:16.315Z,1.80
2023-01-01T17:41:46.505Z,1.60
2023-01-01T17:44:15.549Z,1.83
2023-01-01T17:46:44.910Z,1.93
2023-01-01T17:49:15.405Z,2.00
2023-01-01T17:51:44.537Z,1.80
2023-01-01T17:54:14.103Z,1.67
2023-01-01T17:56:43.395Z,2.20
2023-01-01T17:59:12.548Z,1.87
2023-01-01T18:01:42.056Z,1.70
2023-01-01T18:04:11.833Z,2.40
2023-01-01T18:06:44.910Z,2.07
2023-01-01T18:09:17.044Z,1.83
2023-01-01T18:11:46.300Z,2.10
2023-01-01T18:14:20.926Z,1.57
2023-01-01T18:16:51.923Z,2.10
2023-01-01T18:19:21.006Z,2.20
2023-01-01T18:21:51.387Z,1.60
2023-01-01T18:24:20.528Z,2.13
2023-01-01T18:26:49.584Z,2.07
2023-01-01T18:29:18.683Z,1.80
2023-01-01T18:31:48.506Z,2.20
2023-01-01T18:34:17.559Z,2.70
2023-01-01T18:36:47.889Z,2.30
2023-01-01T18:39:23.678Z,2.07
2023-01-01T18:42:35.335Z,1.63
2023-01-01T18:45:15.406Z,2.27
2023-01-01T18:47:46.324Z,1.43
2023-01-01T18:50:23.828Z,1.70
2023-01-01T18:52:55.504Z,2.17
2023-01-01T18:55:27.954Z,1.73
2023-01-01T18:58:01.202Z,1.77
2023-01-01T19:00:33.104Z,2.20
2023-01-01T19:03:04.029Z,2.40
2023-01-01T19:05:35.063Z,2.40
2023-01-01T19:08:13.984Z,2.13
2023-01-01T19:10:48.763Z,2.63
2023-01-01T19:13:23.493Z,2.50
2023-01-01T19:15:56.103Z,1.73
2023-01-01T19:18:29.332Z,2.40
2023-01-01T19:21:03.635Z,2.13
2023-01-01T19:23:32.839Z,2.07
2023-01-01T19:26:06.413Z,2.63
2023-01-01T19:28:38.037Z,2.33
2023-01-01T19:31:08.217Z,2.33
2023-01-01T19:33:37.453Z,2.50
2023-01-01T19:36:06.937Z,2.27
2023-01-01T19:38:36.256Z,2.60
2023-01-01T19:41:07.198Z,2.23
2023-01-01T19:43:36.502Z,2.10
2023-01-01T19:46:05.849Z,2.13
2023-01-01T19:48:35.026Z,2.13
2023-01-01T19:51:04.046Z,2.20
2023-01-01T19:53:33.072Z,2.13
2023-01-01T19:56:02.229Z,2.70
2023-01-01T19:58:32.771Z,2.43
2023-01-01T20:01:03.024Z,2.53
2023-01-01T20:03:53.648Z,2.23
2023-01-01T20:06:21.254Z,2.57
2023-01-01T20:08:50.365Z,2.43
2023-01-01T20:11:20.555Z,2.50
2023-01-01T20:13:51.143Z,2.80
2023-01-01T20:16:20.348Z,3.07
2023-01-01T20:18:50.084Z,3.60
2023-01-01T20:21:36.904Z,3.80
2023-01-01T20:24:06.743Z,2.70
2023-01-01T20:26:35.855Z,3.00
2023-01-01T20:29:23.226Z,2.43
2023-01-01T20:31:54.030Z,2.87
2023-01-01T20:34:24.113Z,2.47
2023-01-01T20:37:10.626Z,2.67
2023-01-01T20:39:40.764Z,2.60
2023-01-01T20:42:09.872Z,3.03
2023-01-01T20:44:43.096Z,2.80
2023-01-01T20:47:13.033Z,2.93
2023-01-01T20:49:43.293Z,2.80
2023-01-01T20:52:12.389Z,3.07
2023-01-01T20:54:41.633Z,2.90
2023-01-01T20:57:10.658Z,2.53
2023-01-01T20:59:41.197Z,2.70
2023-01-01T21:02:12.188Z,2.40
2023-01-01T21:04:41.680Z,1.70
2023-01-01T21:07:12.495Z,2.13
2023-01-01T21:09:42.358Z,2.90
2023-01-01T21:12:11.702Z,2.00
2023-01-01T21:14:42.699Z,2.50
2023-01-01T21:17:21.214Z,2.60
2023-01-01T21:19:51.531Z,2.20
2023-01-01T21:22:20.755Z,2.30
2023-01-01T21:24:54.449Z,2.73
2023-01-01T21:27:34.464Z,2.87
2023-01-01T21:30:12.091Z,2.93
2023-01-01T21:32:43.496Z,2.93
2023-01-01T21:35:23.081Z,3.03
2023-01-01T21:37:55.296Z,2.80
2023-01-01T21:40:40.103Z,3.40
2023-01-01T21:43:28.732Z,3.00
2023-01-01T21:46:17.910Z,3.67
2023-01-01T21:48:56.513Z,2.73
2023-01-01T21:51:28.042Z,3.63
2023-01-01T21:54:24.358Z,3.47
2023-01-01T21:56:59.944Z,4.20
2023-01-01T21:59:40.802Z,4.70
2023-01-01T22:02:40.072Z,3.70
2023-01-01T22:05:30.569Z,3.57
2023-01-01T22:08:00.173Z,4.07
2023-01-01T22:10:35.348Z,4.13
2023-01-01T22:13:14.457Z,3.93
2023-01-01T22:15:45.853Z,3.60
2023-01-01T22:18:22.892Z,3.00
2023-01-01T22:20:52.658Z,3.97
2023-01-01T22:23:39.497Z,3.23
2023-01-01T22:26:20.759Z,3.57
2023-01-01T22:28:52.511Z,3.50
2023-01-01T22:31:25.191Z,4.03
2023-01-01T22:34:00.166Z,3.47
2023-01-01T22:36:31.834Z,2.90
2023-01-01T22:39:03.643Z,2.90
2023-01-01T22:41:32.670Z,4.00
2023-01-01T22:44:04.617Z,3.43
2023-01-01T22:46:37.292Z,3.37
2023-01-01T22:49:18.728Z,3.13
2023-01-01T22:51:48.989Z,3.60
2023-01-01T22:54:18.187Z,3.53
2023-01-01T22:56:47.378Z,3.00
2023-01-01T22:59:16.462Z,3.60
2023-01-01T23:01:45.539Z,3.33
2023-01-01T23:04:16.918Z,2.97
2023-01-01T23:06:46.049Z,3.20
2023-01-01T23:09:15.140Z,3.17
2023-01-01T23:11:44.313Z,3.20
2023-01-01T23:14:33.146Z,2.67
2023-01-01T23:17:06.298Z,3.10
2023-01-01T23:19:36.716Z,2.80
2023-01-01T23:22:06.229Z,2.80
2023-01-01T23:24:35.682Z,3.17
2023-01-01T23:27:04.981Z,3.10
2023-01-01T23:29:35.183Z,3.50
2023-01-01T23:32:04.673Z,2.70
2023-01-01T23:34:33.920Z,2.70
2023-01-01T23:37:04.309Z,2.53
2023-01-01T23:39:33.409Z,3.07
2023-01-01T23:42:02.513Z,2.37
2023-01-01T23:44:31.546Z,1.97
2023-01-01T23:47:02.125Z,2.30
2023-01-01T23:49:34.165Z,2.53
2023-01-01T23:52:05.464Z,2.10
2023-01-01T23:54:34.728Z,2.23
2023-01-01T23:57:03.805Z,2.60
2023-01-01T23:59:32.895Z,2.40
